Graham, Missouri
Current Conditions -  °F | °C
As of 9:53 AM on Saturday 22 Nov 2014 (Local Time) from KFNB Reporting Station
Overcast Overcast  
Wind Chill: 42°   Ceiling: 700
Heat Index: 49°   Visibility: 8mi
Dew Point: 46°   Wind: 20mph
Humidity: 90%   Direction: 210°SSW
Pressure: 29.89"   Gusts: 29mph
Location:  40.2°N, 95.04°W
Report Text: KFNB 221553Z AUTO 21017G25KT 8SM OVC007 09/08 A2989 RMK AO2 SLP126 T00940078
Loading
Personal Weather Stations






























Interactive Weather Map New forecast layout! Learn more

10-Day Weather Forecast

Advertisements
Track Severe Weather on mobile